Lindenwood, Illinois
Current Conditions -  °F | °C
As of 2:55 PM on Tuesday 25 Nov 2014 (Local Time) from KRPJ Reporting Station
Scattered Clouds Scattered Clouds  
Wind Chill:   Ceiling: Unl
Heat Index: 20°   Visibility: 10mi
Dew Point: 15°   Wind: 12mph
Humidity: 81%   Direction: 250°WSW
Pressure: 30.16"   Gusts: NA
Location:  42.05°N, 89.03°W
Report Text: KRPJ 252055Z AUTO 25010KT 10SM SCT013 M06/M09 A3016 RMK AO2 T10651092
Loading
Personal Weather Stations






























Interactive Weather Map New forecast layout! Learn more

10-Day Weather Forecast

Advertisements
Track Severe Weather on mobile